Ocotillo, California
Current Conditions -  °F | °C
As of 7:56 AM on Wednesday 26 Nov 2014 (Local Time) from KNJK Reporting Station
Clear Clear  
Wind Chill: 11°   Ceiling: Unl
Heat Index: 11°   Visibility: 10mi
Dew Point: -7°   Wind: 3mph
Humidity: 28%   Direction: 200°SSW
Pressure: 30.3"   Gusts: NA
Location:  32.74°N, 115.99°W
Report Text: KNJK 261556Z 20003KT 10SM CLR 11/M07 A3030 RMK AO2 SLP275 T01061072
Loading
Personal Weather Stations






























Interactive Weather Map New forecast layout! Learn more

10-Day Weather Forecast

Advertisements
Track Severe Weather on mobile